• Join FlightAware (Why Join?)
  • Login
  • US Flag 
06:48AM EDT


 

Airport Tracker/Info


-or-


 

Live Flight TrackerFlight Track Log ✈ N974RK ✈ 24-Aug-2014 ✈ KEDC - KADS

Flight Track Log - Related Links

Times and Time Zones

All times are in EDT time to prevent confusion due to time zone crossing. See the N974RK flight status page for this flight to view local times or setup timezone preferences in your user account.

Time Position Orientation Groundspeed Altitude Reporting Facility
EDT Latitude Longitude Course Direction KTS MPH feet Rate Location/Type
09:11PM 30.5047 -97.5408 14° North 147 169 2,800  Level Houston Center
09:12PM 30.5456 -97.5286 14° North 138 159 3,500 480 Climbing Houston Center
09:13PM 30.5669 -97.5250 North 134 154 3,700 540 Climbing Houston Center
09:13PM 30.5806 -97.5219 11° North 127 146 4,100 540 Climbing Houston Center
09:14PM 30.5994 -97.5183 North 126 145 4,300 480 Climbing Houston Center
09:14PM 30.6114 -97.5133 20° North 116 133 4,600 480 Climbing Houston Center
09:15PM 30.6325 -97.5086 11° North 125 144 4,800 420 Climbing Houston Center
09:16PM 30.6636 -97.5000 13° North 118 136 5,300 300 Climbing Houston Center
09:17PM 30.6975 -97.4892 15° North 119 137 5,500 60 Climbing Houston Center
09:18PM 30.7464 -97.4753 14° North 140 161 5,500  Level Houston Center
09:19PM 30.7847 -97.4650 13° North 143 165 5,500  Level Houston Center
09:20PM 30.8231 -97.4542 14° North 143 165 5,500  Level Houston Center
09:21PM 30.8606 -97.4436 14° North 143 165 5,500  Level Houston Center
09:22PM 30.8978 -97.4342 12° North 142 163 5,500  Level Fort Worth Center
09:23PM 30.9358 -97.4228 14° North 142 163 5,500  Level Fort Worth Center
09:24PM 30.9733 -97.4128 13° North 141 162 5,500  Level Fort Worth Center
09:25PM 31.0106 -97.4019 14° North 141 162 5,500  Level Fort Worth Center
09:26PM 31.0483 -97.3919 13° North 141 162 5,500  Level Fort Worth Center
09:27PM 31.0858 -97.3811 14° North 141 162 5,500  Level Fort Worth Center
09:28PM 31.1228 -97.3700 14° North 141 162 5,500  Level Fort Worth Center
09:29PM 31.1686 -97.3575 13° North 141 162 5,500  Level Fort Worth Center
09:30PM 31.2058 -97.3464 14° North 140 161 5,500  Level Fort Worth Center
09:30PM 31.2158 -97.3433 15° North 138 159 5,500  Level Fort Worth Center
09:31PM 31.2428 -97.3356 14° North 140 161 5,500  Level Fort Worth Center
09:32PM 31.2800 -97.3250 14° North 140 161 5,500  Level Fort Worth Center
09:33PM 31.3164 -97.3147 14° North 139 160 5,500  Level Fort Worth Center
09:34PM 31.3517 -97.3050 13° North 136 157 5,500  Level Fort Worth Center
09:34PM 31.3628 -97.3003 20° North 131 151 5,500  Level Fort Worth Center
09:35PM 31.3872 -97.2947 11° North 135 155 5,500  Level Fort Worth Center
09:36PM 31.4239 -97.2847 13° North 135 155 5,500  Level Fort Worth Center
09:37PM 31.4692 -97.2711 14° North 136 157 5,500  Level Fort Worth Center
09:38PM 31.5100 -97.2597 13° North 137 158 5,500  Level Fort Worth Center
09:39PM 31.5450 -97.2497 14° North 137 158 5,500  Level Fort Worth Center
09:40PM 31.5828 -97.2389 14° North 137 158 5,500  Level Fort Worth Center
09:41PM 31.6208 -97.2283 13° North 137 158 5,500  Level Fort Worth Center
09:42PM 31.6581 -97.2167 15° North 138 159 5,500  Level Fort Worth Center
09:44PM 31.6956 -97.2067 13° North 138 159 5,500  Level Fort Worth Center
09:45PM 31.7328 -97.1958 14° North 138 159 5,500  Level Fort Worth Center
09:46PM 31.7708 -97.1850 14° North 138 159 5,500  Level Fort Worth Center
09:46PM 31.7981 -97.1792 10° North 138 159 5,500  Level Fort Worth Center
09:47PM 31.8161 -97.1719 19° North 138 159 5,500  Level Fort Worth Center
09:48PM 31.8539 -97.1608 14° North 138 159 5,500  Level Fort Worth Center
09:49PM 31.8900 -97.1511 13° North 138 159 5,500  Level Fort Worth Center
09:50PM 31.9308 -97.1403 13° North 136 157 5,500  Level Fort Worth Center
09:51PM 31.9631 -97.1289 17° North 135 155 5,500  Level Fort Worth Center
09:52PM 31.9986 -97.1203 12° North 135 155 5,500  Level Fort Worth Center
09:53PM 32.0439 -97.1061 15° North 136 157 5,500  Level Fort Worth Center
09:54PM 32.0817 -97.0961 13° North 140 161 5,600  Climbing Fort Worth Center
09:55PM 32.1189 -97.0836 16° North 137 158 5,500 -60 Descending Fort Worth Center
09:57PM 32.1947 -97.0631 13° North 138 159 5,500  Level Fort Worth Center
09:58PM 32.2364 -97.0506 14° North 138 159 5,500  Level Fort Worth Center
09:59PM 32.2753 -97.0392 14° North 141 162 5,600 -300 Climbing Fort Worth Center
10:00PM 32.3169 -97.0275 13° North 157 181 5,000 -780 Descending Fort Worth Center
10:01PM 32.3672 -97.0122 14° North 170 196 4,100 -720 Descending Fort Worth Center
10:02PM 32.4144 -96.9992 13° North 173 199 3,600 -300 Descending Fort Worth Center
10:03PM 32.4569 -96.9861 15° North 160 184 3,600  Level Fort Worth Center
10:04PM 32.4986 -96.9753 12° North 149 171 3,600  Level Fort Worth Center
10:05PM 32.5375 -96.9642 14° North 146 168 3,600  Level Fort Worth Center
10:06PM 32.5758 -96.9533 13° North 144 166 3,600  Level Fort Worth Center
10:07PM 32.6178 -96.9408 14° North 143 165 3,600  Level Fort Worth Center
10:08PM 32.6553 -96.9297 14° North 142 163 3,600  Level Fort Worth Center
10:09PM 32.6944 -96.9186 13° North 143 165 3,600  Level Fort Worth Center
10:10PM 32.7350 -96.9072 13° North 142 163 3,600  Level Fort Worth Center
10:11PM 32.7728 -96.8939 17° North 143 165 3,600 -180 Level Fort Worth Center
10:12PM 32.8028 -96.8614 42° Northeast 143 165 3,300 -300 Descending Fort Worth Center
10:13PM 32.8456 -96.8558 North 163 188 3,100 -120 Descending Fort Worth Center
10:14PM 32.8881 -96.8583 357° North 156 180 3,100  Level Fort Worth Center
10:15PM 32.9325 -96.8583 360° North 151 174 3,100 -360 Level Fort Worth Center
10:16PM 32.9708 -96.8564 North 141 162 2,400 -540 Descending Fort Worth Center
10:17PM 33.0050 -96.8594 356° North 126 145 2,100 -420 Descending Fort Worth Center
10:18PM 33.0228 -96.8478 29° Northeast 111 128 1,600 -540 Descending Fort Worth Center
10:19PM 33.0003 -96.8494 184° South 72 83 1,100 -420 Descending Fort Worth Center
10:20PM 32.9831 -96.8428 162° South 69 79 800 -300 Descending Fort Worth Center